createdAt,value
2019-01-02T00:00:46.657Z,2.00
2019-01-02T00:03:14.260Z,1.60
2019-01-02T00:05:42.234Z,1.40
2019-01-02T00:08:09.988Z,1.70
2019-01-02T00:10:38.123Z,1.30
2019-01-02T00:13:05.911Z,1.80
2019-01-02T00:15:33.878Z,2.00
2019-01-02T00:18:01.439Z,2.40
2019-01-02T00:20:29.255Z,1.43
2019-01-02T00:22:57.028Z,1.33
2019-01-02T00:25:24.811Z,1.33
2019-01-02T00:27:53.041Z,1.70
2019-01-02T00:30:21.654Z,1.63
2019-01-02T00:32:49.688Z,1.47
2019-01-02T00:35:17.333Z,1.40
2019-01-02T00:37:45.237Z,1.53
2019-01-02T00:40:13.069Z,1.40
2019-01-02T00:42:41.007Z,1.40
2019-01-02T00:45:08.832Z,1.27
2019-01-02T00:47:36.855Z,1.37
2019-01-02T00:50:06.640Z,1.57
2019-01-02T00:52:34.556Z,1.20
2019-01-02T00:55:02.368Z,1.70
2019-01-02T00:57:30.299Z,1.70
2019-01-02T00:59:58.165Z,1.50
2019-01-02T01:02:26.096Z,2.10
2019-01-02T01:04:54.027Z,1.47
2019-01-02T01:07:22.508Z,1.47
2019-01-02T01:09:50.118Z,1.63
2019-01-02T01:12:17.873Z,1.10
2019-01-02T01:14:45.484Z,1.60
2019-01-02T01:17:24.854Z,2.20
2019-01-02T01:20:03.981Z,1.43
2019-01-02T01:22:31.896Z,1.50
2019-01-02T01:25:00.028Z,1.97
2019-01-02T01:27:28.963Z,2.03
2019-01-02T01:29:57.294Z,1.43
2019-01-02T01:32:24.882Z,2.47
2019-01-02T01:34:53.210Z,2.17
2019-01-02T01:37:20.741Z,2.60
2019-01-02T01:39:48.760Z,2.80
2019-01-02T01:42:17.120Z,2.70
2019-01-02T01:44:44.602Z,2.63
2019-01-02T01:47:12.396Z,1.93
2019-01-02T01:49:39.948Z,2.13
2019-01-02T01:52:07.466Z,3.13
2019-01-02T01:54:35.648Z,2.13
2019-01-02T01:57:03.417Z,2.77
2019-01-02T01:59:31.424Z,2.00
2019-01-02T02:01:59.013Z,2.13
2019-01-02T02:04:26.495Z,3.30
2019-01-02T02:06:54.349Z,2.77
2019-01-02T02:09:21.815Z,3.57
2019-01-02T02:11:49.613Z,2.33
2019-01-02T02:14:17.168Z,2.87
2019-01-02T02:16:45.056Z,2.03
2019-01-02T02:19:13.094Z,2.13
2019-01-02T02:21:40.720Z,2.43
2019-01-02T02:24:08.651Z,4.57
2019-01-02T02:26:36.232Z,2.40
2019-01-02T02:29:03.751Z,2.47
2019-01-02T02:31:31.859Z,2.60
2019-01-02T02:33:59.958Z,2.00
2019-01-02T02:36:27.971Z,2.90
2019-01-02T02:38:56.099Z,1.73
2019-01-02T02:41:23.980Z,2.57
2019-01-02T02:43:52.012Z,3.03
2019-01-02T02:46:20.116Z,1.87
2019-01-02T02:48:47.616Z,2.70
2019-01-02T02:51:15.547Z,2.33
2019-01-02T02:53:43.405Z,2.60
2019-01-02T02:56:11.232Z,2.83
2019-01-02T02:58:39.273Z,2.40
2019-01-02T03:01:07.427Z,2.73
2019-01-02T03:03:35.518Z,1.83
2019-01-02T03:06:03.433Z,2.23
2019-01-02T03:08:31.619Z,2.70
2019-01-02T03:10:59.381Z,2.20
2019-01-02T03:13:27.278Z,1.80
2019-01-02T03:15:55.051Z,2.60
2019-01-02T03:18:23.022Z,2.30
2019-01-02T03:20:50.504Z,2.20
2019-01-02T03:23:18.406Z,2.70
2019-01-02T03:25:46.928Z,3.07
2019-01-02T03:28:15.265Z,2.23
2019-01-02T03:30:42.944Z,2.23
2019-01-02T03:33:10.767Z,3.30
2019-01-02T03:35:38.234Z,2.20
2019-01-02T03:38:05.743Z,2.73
2019-01-02T03:40:33.257Z,2.20
2019-01-02T03:43:00.792Z,1.57
2019-01-02T03:45:28.301Z,1.63
2019-01-02T03:47:55.853Z,1.93
2019-01-02T03:50:23.363Z,2.40
2019-01-02T03:52:50.917Z,2.67
2019-01-02T03:55:18.644Z,2.00
2019-01-02T03:57:46.851Z,1.50
2019-01-02T04:00:17.213Z,2.43
2019-01-02T04:02:44.893Z,2.07
2019-01-02T04:05:14.060Z,2.10
2019-01-02T04:07:44.631Z,2.17
2019-01-02T04:10:12.856Z,2.37
2019-01-02T04:12:40.518Z,3.00
2019-01-02T04:15:08.223Z,3.80
2019-01-02T04:17:36.621Z,2.50
2019-01-02T04:20:05.223Z,3.07
2019-01-02T04:22:33.646Z,2.33
2019-01-02T04:25:02.216Z,2.57
2019-01-02T04:27:30.344Z,2.10
2019-01-02T04:29:58.763Z,2.20
2019-01-02T04:32:27.066Z,2.10
2019-01-02T04:34:55.050Z,2.40
2019-01-02T04:37:22.915Z,2.60
2019-01-02T04:39:51.189Z,2.33
2019-01-02T04:42:19.535Z,2.30
2019-01-02T04:44:47.764Z,2.50
2019-01-02T04:47:16.198Z,2.20
2019-01-02T04:49:44.496Z,3.53
2019-01-02T04:52:12.514Z,4.73
2019-01-02T04:54:41.788Z,3.30
2019-01-02T04:57:10.230Z,2.70
2019-01-02T04:59:39.704Z,3.10
2019-01-02T05:02:07.928Z,3.10
2019-01-02T05:04:36.492Z,3.47
2019-01-02T05:07:04.755Z,4.47
2019-01-02T05:09:33.069Z,3.80
2019-01-02T05:12:01.419Z,4.03
2019-01-02T05:14:29.674Z,4.40
2019-01-02T05:16:57.685Z,4.70
2019-01-02T05:19:25.704Z,5.83
2019-01-02T05:21:53.502Z,4.37
2019-01-02T05:24:21.641Z,5.30
2019-01-02T05:26:49.115Z,3.47
2019-01-02T05:29:16.932Z,3.87
2019-01-02T05:31:44.808Z,4.60
2019-01-02T05:34:12.433Z,3.27
2019-01-02T05:36:42.963Z,6.10
2019-01-02T05:39:10.499Z,3.13
2019-01-02T05:41:38.305Z,3.90
2019-01-02T05:44:05.883Z,3.93
2019-01-02T05:46:33.412Z,2.63
2019-01-02T05:49:00.937Z,4.80
2019-01-02T05:51:28.411Z,3.03
2019-01-02T05:53:55.913Z,2.60
2019-01-02T05:56:23.443Z,3.30
2019-01-02T05:58:50.964Z,3.60
2019-01-02T06:01:18.505Z,3.20
2019-01-02T06:03:46.248Z,3.70
2019-01-02T06:06:13.743Z,3.97
2019-01-02T06:08:41.702Z,3.37
2019-01-02T06:11:09.335Z,3.50
2019-01-02T06:13:37.277Z,3.90
2019-01-02T06:16:04.792Z,3.40
2019-01-02T06:18:32.373Z,4.23
2019-01-02T06:20:59.846Z,3.33
2019-01-02T06:23:27.356Z,3.37
2019-01-02T06:25:54.843Z,2.80
2019-01-02T06:28:22.363Z,3.27
2019-01-02T06:30:49.895Z,3.43
2019-01-02T06:33:17.447Z,3.37
2019-01-02T06:35:44.972Z,3.47
2019-01-02T06:38:12.537Z,2.90
2019-01-02T06:40:40.037Z,3.40
2019-01-02T06:43:07.596Z,3.13
2019-01-02T06:45:35.152Z,3.00
2019-01-02T06:48:02.705Z,3.43
2019-01-02T06:50:30.324Z,3.67
2019-01-02T06:52:58.019Z,4.00
2019-01-02T06:55:25.990Z,3.27
2019-01-02T06:57:53.466Z,3.90
2019-01-02T07:00:24.229Z,2.87
2019-01-02T07:02:51.870Z,3.40
2019-01-02T07:05:19.611Z,2.67
2019-01-02T07:07:47.488Z,2.77
2019-01-02T07:10:15.164Z,3.30
2019-01-02T07:12:42.990Z,3.70
2019-01-02T07:15:10.570Z,6.20
2019-01-02T07:17:38.055Z,3.00
2019-01-02T07:20:07.454Z,4.87
2019-01-02T07:22:34.960Z,3.43
2019-01-02T07:25:02.563Z,3.43
2019-01-02T07:27:30.698Z,4.17
2019-01-02T07:29:58.284Z,4.33
2019-01-02T07:32:25.751Z,4.70
2019-01-02T07:35:34.368Z,2.57
2019-01-02T07:38:32.544Z,3.23
2019-01-02T07:41:36.795Z,3.90
2019-01-02T07:45:07.690Z,3.00
2019-01-02T07:48:12.672Z,2.70
2019-01-02T07:51:23.725Z,3.77
2019-01-02T07:54:20.169Z,3.50
2019-01-02T07:57:18.460Z,3.17
2019-01-02T08:00:29.653Z,3.67
2019-01-02T08:03:24.995Z,3.30
2019-01-02T08:06:31.845Z,3.13
2019-01-02T08:09:36.235Z,3.67
2019-01-02T08:12:36.105Z,3.50
2019-01-02T08:15:44.830Z,3.40
2019-01-02T08:18:59.146Z,4.53
2019-01-02T08:22:16.648Z,4.97
2019-01-02T08:25:33.188Z,3.40
2019-01-02T08:28:52.526Z,3.20
2019-01-02T08:32:20.409Z,3.60
2019-01-02T08:35:34.746Z,3.37
2019-01-02T08:38:35.100Z,2.60
2019-01-02T08:41:39.225Z,4.10
2019-01-02T08:44:51.602Z,3.50
2019-01-02T08:48:04.255Z,2.53
2019-01-02T08:51:22.745Z,5.40
2019-01-02T08:54:35.089Z,4.80
2019-01-02T08:57:36.647Z,3.30
2019-01-02T09:00:58.427Z,4.20
2019-01-02T09:04:10.868Z,3.23
2019-01-02T09:06:58.103Z,2.67
2019-01-02T09:10:13.422Z,4.40
2019-01-02T09:13:29.097Z,3.10
2019-01-02T09:16:37.075Z,5.30
2019-01-02T09:19:47.911Z,3.53
2019-01-02T09:23:18.511Z,3.10
2019-01-02T09:26:12.619Z,2.40
2019-01-02T09:29:21.380Z,3.40
2019-01-02T09:32:33.496Z,3.43
2019-01-02T09:35:51.881Z,3.23
2019-01-02T09:39:04.665Z,3.90
2019-01-02T09:42:15.688Z,3.40
2019-01-02T09:45:23.969Z,3.37
2019-01-02T09:48:33.197Z,4.03
2019-01-02T09:51:44.539Z,3.03
2019-01-02T09:55:01.370Z,4.00
2019-01-02T09:58:00.578Z,5.20
2019-01-02T10:01:02.564Z,3.40
2019-01-02T10:04:13.723Z,4.63
2019-01-02T10:07:18.202Z,4.10
2019-01-02T10:10:18.890Z,3.50
2019-01-02T10:13:33.443Z,4.27
2019-01-02T10:16:27.131Z,3.73
2019-01-02T10:19:28.508Z,3.93
2019-01-02T10:22:53.004Z,4.30
2019-01-02T10:26:11.618Z,4.03
2019-01-02T10:29:26.984Z,4.23
2019-01-02T10:32:42.301Z,3.00
2019-01-02T10:35:22.900Z,3.40
2019-01-02T10:38:34.144Z,5.17
2019-01-02T10:41:28.996Z,5.07
2019-01-02T10:44:44.415Z,2.80
2019-01-02T10:48:04.188Z,3.30
2019-01-02T10:51:09.305Z,4.33
2019-01-02T10:54:16.313Z,3.93
2019-01-02T10:57:05.034Z,4.00
2019-01-02T11:00:11.156Z,2.90
2019-01-02T11:03:15.127Z,3.97
2019-01-02T11:06:39.556Z,4.40
2019-01-02T11:09:57.869Z,5.13
2019-01-02T11:12:59.798Z,3.27
2019-01-02T11:15:48.234Z,3.90
2019-01-02T11:18:56.400Z,3.57
2019-01-02T11:21:55.976Z,3.67
2019-01-02T11:25:19.741Z,3.43
2019-01-02T11:28:36.828Z,6.13
2019-01-02T11:31:55.008Z,5.63
2019-01-02T11:34:50.085Z,3.47
2019-01-02T11:38:02.447Z,3.47
2019-01-02T11:41:30.265Z,3.30
2019-01-02T11:44:53.796Z,3.53
2019-01-02T11:47:21.487Z,3.40
2019-01-02T11:49:48.985Z,4.33
2019-01-02T11:52:16.466Z,4.10
2019-01-02T11:54:43.960Z,4.03
2019-01-02T11:57:11.933Z,4.03
2019-01-02T11:59:39.415Z,4.57
2019-01-02T12:02:07.216Z,3.30
2019-01-02T12:04:34.722Z,4.07
2019-01-02T12:07:02.484Z,3.90
2019-01-02T12:09:31.179Z,2.80
2019-01-02T12:11:58.696Z,4.80
2019-01-02T12:14:26.327Z,3.10
2019-01-02T12:16:53.874Z,3.50
2019-01-02T12:19:21.408Z,3.30
2019-01-02T12:21:48.913Z,5.00
2019-01-02T12:24:16.479Z,3.97
2019-01-02T12:26:44.077Z,3.90
2019-01-02T12:29:11.628Z,3.87
2019-01-02T12:31:39.160Z,4.03
2019-01-02T12:34:06.748Z,3.67
2019-01-02T12:36:34.340Z,3.63
2019-01-02T12:39:01.900Z,3.73
2019-01-02T12:41:29.873Z,2.57
2019-01-02T12:43:57.786Z,4.80
2019-01-02T12:46:25.788Z,3.67
2019-01-02T12:48:54.340Z,3.90
2019-01-02T12:51:22.995Z,4.60
2019-01-02T12:53:50.508Z,3.90
2019-01-02T12:56:17.996Z,3.70
2019-01-02T12:58:45.543Z,3.50
2019-01-02T13:01:19.954Z,5.97
2019-01-02T13:04:40.040Z,3.63
2019-01-02T13:07:50.200Z,3.73
2019-01-02T13:10:34.072Z,3.97
2019-01-02T13:13:30.245Z,3.70
2019-01-02T13:16:26.401Z,4.30
2019-01-02T13:19:42.313Z,3.33
2019-01-02T13:22:44.691Z,3.83
2019-01-02T13:25:40.436Z,3.33
2019-01-02T13:28:43.159Z,4.50
2019-01-02T13:31:43.091Z,3.63
2019-01-02T13:34:46.188Z,3.63
2019-01-02T13:37:34.496Z,3.07
2019-01-02T13:40:46.316Z,4.80
2019-01-02T13:43:37.999Z,3.07
2019-01-02T13:47:02.873Z,3.90
2019-01-02T13:50:16.819Z,5.40
2019-01-02T13:52:44.345Z,4.40
2019-01-02T13:55:19.644Z,5.53
2019-01-02T13:57:47.175Z,6.00
2019-01-02T14:00:14.643Z,5.90
2019-01-02T14:02:42.480Z,5.07
2019-01-02T14:05:13.687Z,4.90
2019-01-02T14:07:41.234Z,6.13
2019-01-02T14:10:08.755Z,6.37
2019-01-02T14:12:36.336Z,5.87
2019-01-02T14:15:04.060Z,5.40
2019-01-02T14:17:31.611Z,5.50
2019-01-02T14:19:59.428Z,7.00
2019-01-02T14:22:26.964Z,7.00
2019-01-02T14:24:55.545Z,6.70
2019-01-02T14:27:23.084Z,7.37
2019-01-02T14:29:50.759Z,5.77
2019-01-02T14:32:18.320Z,6.30
2019-01-02T14:34:46.276Z,6.00
2019-01-02T14:37:13.843Z,5.43
2019-01-02T14:39:41.380Z,6.77
2019-01-02T14:42:08.954Z,6.30
2019-01-02T14:44:36.505Z,7.13
2019-01-02T14:47:03.960Z,7.90
2019-01-02T14:49:31.476Z,4.80
2019-01-02T14:51:58.931Z,7.50
2019-01-02T14:54:26.447Z,6.83
2019-01-02T14:56:53.927Z,6.60
2019-01-02T14:59:21.479Z,5.17
2019-01-02T15:01:48.936Z,4.63
2019-01-02T15:04:16.445Z,5.90
2019-01-02T15:06:43.953Z,4.43
2019-01-02T15:09:11.740Z,4.77
2019-01-02T15:11:39.676Z,4.73
2019-01-02T15:14:08.105Z,5.67
2019-01-02T15:16:36.164Z,5.57
2019-01-02T15:19:03.756Z,3.30
2019-01-02T15:21:31.264Z,4.70
2019-01-02T15:23:59.233Z,5.73
2019-01-02T15:26:26.901Z,6.47
2019-01-02T15:28:54.412Z,5.90
2019-01-02T15:31:21.948Z,4.00
2019-01-02T15:33:49.493Z,4.23
2019-01-02T15:36:17.027Z,4.97
2019-01-02T15:38:44.590Z,4.90
2019-01-02T15:41:12.442Z,3.57
2019-01-02T15:43:40.007Z,4.37
2019-01-02T15:46:07.524Z,4.13
2019-01-02T15:48:35.320Z,4.60
2019-01-02T15:51:02.838Z,5.57
2019-01-02T15:53:30.347Z,4.90
2019-01-02T15:55:57.820Z,4.87
2019-01-02T15:58:25.380Z,4.70
2019-01-02T16:00:52.836Z,4.40
2019-01-02T16:03:20.668Z,3.97
2019-01-02T16:05:48.152Z,4.00
2019-01-02T16:08:15.664Z,4.37
2019-01-02T16:10:43.140Z,4.40
2019-01-02T16:13:10.624Z,5.60
2019-01-02T16:15:38.240Z,4.50
2019-01-02T16:18:05.756Z,4.33
2019-01-02T16:20:33.275Z,5.60
2019-01-02T16:23:00.768Z,5.93
2019-01-02T16:25:28.288Z,4.57
2019-01-02T16:27:55.772Z,4.53
2019-01-02T16:30:26.384Z,3.80
2019-01-02T16:32:53.884Z,4.10
2019-01-02T16:35:22.072Z,4.03
2019-01-02T16:38:09.152Z,4.20
2019-01-02T16:40:36.791Z,3.93
2019-01-02T16:43:04.351Z,4.23
2019-01-02T16:45:32.515Z,6.00
2019-01-02T16:48:00.045Z,4.83
2019-01-02T16:50:27.541Z,5.70
2019-01-02T16:52:55.028Z,4.20
2019-01-02T16:55:22.547Z,6.53
2019-01-02T16:57:50.028Z,4.80
2019-01-02T17:00:17.539Z,4.53
2019-01-02T17:02:45.052Z,4.77
2019-01-02T17:05:12.607Z,5.40
2019-01-02T17:07:40.126Z,4.70
2019-01-02T17:10:09.919Z,5.77
2019-01-02T17:12:37.427Z,5.30
2019-01-02T17:15:04.979Z,4.23
2019-01-02T17:17:32.468Z,4.70
2019-01-02T17:20:00.230Z,4.97
2019-01-02T17:22:27.714Z,4.57
2019-01-02T17:24:55.233Z,4.40
2019-01-02T17:27:22.781Z,3.90
2019-01-02T17:29:50.295Z,3.87
2019-01-02T17:32:17.933Z,5.10
2019-01-02T17:34:45.467Z,4.80
2019-01-02T17:37:13.035Z,4.70
2019-01-02T17:39:40.539Z,4.93
2019-01-02T17:42:08.084Z,4.90
2019-01-02T17:44:35.640Z,4.17
2019-01-02T17:47:03.167Z,4.30
2019-01-02T17:49:30.727Z,3.93
2019-01-02T17:51:58.219Z,5.07
2019-01-02T17:54:26.078Z,5.60
2019-01-02T17:56:53.619Z,4.30
2019-01-02T17:59:21.155Z,3.90
2019-01-02T18:01:48.745Z,4.37
2019-01-02T18:04:16.333Z,4.23
2019-01-02T18:06:43.889Z,4.57
2019-01-02T18:09:15.061Z,4.30
2019-01-02T18:11:42.545Z,4.60
2019-01-02T18:14:10.104Z,4.10
2019-01-02T18:16:37.677Z,5.20
2019-01-02T18:19:05.195Z,6.43
2019-01-02T18:21:32.715Z,5.23
2019-01-02T18:24:00.223Z,4.70
2019-01-02T18:26:27.756Z,4.17
2019-01-02T18:28:55.901Z,3.23
2019-01-02T18:31:23.411Z,4.23
2019-01-02T18:33:51.597Z,4.00
2019-01-02T18:36:19.099Z,4.67
2019-01-02T18:38:46.555Z,3.97
2019-01-02T18:41:14.082Z,5.00
2019-01-02T18:43:41.580Z,4.30
2019-01-02T18:46:09.163Z,4.50
2019-01-02T18:48:37.040Z,5.00
2019-01-02T18:51:04.997Z,4.33
2019-01-02T18:53:32.951Z,5.30
2019-01-02T18:56:00.419Z,4.40
2019-01-02T18:58:30.198Z,4.40
2019-01-02T19:00:57.787Z,5.37
2019-01-02T19:03:26.159Z,5.20
2019-01-02T19:05:54.664Z,5.20
2019-01-02T19:08:42.190Z,5.80
2019-01-02T19:11:11.153Z,6.10
2019-01-02T19:13:40.242Z,6.50
2019-01-02T19:16:08.426Z,6.30
2019-01-02T19:18:36.480Z,4.70
2019-01-02T19:21:05.027Z,4.73
2019-01-02T19:23:33.350Z,5.73
2019-01-02T19:26:03.321Z,5.57
2019-01-02T19:28:33.021Z,5.83
2019-01-02T19:31:00.786Z,6.33
2019-01-02T19:33:28.266Z,6.20
2019-01-02T19:35:56.508Z,6.83
2019-01-02T19:38:24.399Z,5.57
2019-01-02T19:40:52.869Z,6.90
2019-01-02T19:43:20.546Z,4.77
2019-01-02T19:45:48.077Z,6.47
2019-01-02T19:48:15.821Z,7.23
2019-01-02T19:50:43.411Z,5.30
2019-01-02T19:53:10.941Z,5.63
2019-01-02T19:55:38.698Z,5.57
2019-01-02T19:58:08.711Z,4.87
2019-01-02T20:00:36.895Z,4.20
2019-01-02T20:03:09.111Z,5.37
2019-01-02T20:05:38.476Z,5.67
2019-01-02T20:08:06.468Z,5.47
2019-01-02T20:10:38.644Z,5.43
2019-01-02T20:13:06.175Z,3.77
2019-01-02T20:15:34.791Z,4.47
2019-01-02T20:18:02.640Z,4.10
2019-01-02T20:20:30.631Z,5.90
2019-01-02T20:22:58.326Z,4.00
2019-01-02T20:25:26.802Z,3.13
2019-01-02T20:27:55.441Z,3.90
2019-01-02T20:30:23.212Z,3.40
2019-01-02T20:32:51.981Z,5.03
2019-01-02T20:35:20.630Z,2.97
2019-01-02T20:37:51.161Z,3.47
2019-01-02T20:40:21.645Z,3.87
2019-01-02T20:42:49.619Z,3.53
2019-01-02T20:45:17.325Z,3.70
2019-01-02T20:47:47.999Z,3.90
2019-01-02T20:50:14.446Z,4.50
2019-01-02T20:52:56.812Z,2.60
2019-01-02T20:55:24.508Z,2.70
2019-01-02T20:57:52.738Z,2.73
2019-01-02T21:00:21.688Z,3.50
2019-01-02T21:02:50.250Z,4.43
2019-01-02T21:05:26.651Z,4.60
2019-01-02T21:08:33.072Z,4.50
2019-01-02T21:11:01.865Z,4.73
2019-01-02T21:13:30.128Z,4.60
2019-01-02T21:15:57.960Z,3.77
2019-01-02T21:18:28.637Z,5.50
2019-01-02T21:20:57.209Z,4.47
2019-01-02T21:23:25.392Z,4.70
2019-01-02T21:25:59.774Z,5.53
2019-01-02T21:28:27.884Z,4.93
2019-01-02T21:31:00.304Z,4.73
2019-01-02T21:33:31.873Z,5.53
2019-01-02T21:36:03.337Z,5.10
2019-01-02T21:38:32.300Z,6.50
2019-01-02T21:41:04.441Z,4.80
2019-01-02T21:43:39.021Z,3.70
2019-01-02T21:46:10.229Z,4.13
2019-01-02T21:48:41.391Z,4.37
2019-01-02T21:51:09.312Z,4.87
2019-01-02T21:53:37.416Z,6.70
2019-01-02T21:56:05.629Z,4.17
2019-01-02T21:58:34.473Z,5.03
2019-01-02T22:01:03.615Z,3.17
2019-01-02T22:03:32.572Z,3.03
2019-01-02T22:06:01.484Z,2.43
2019-01-02T22:08:53.647Z,2.30
2019-01-02T22:11:27.223Z,2.50
2019-01-02T22:14:02.927Z,2.23
2019-01-02T22:16:39.276Z,2.47
2019-01-02T22:19:13.315Z,1.83
2019-01-02T22:21:41.564Z,2.03
2019-01-02T22:24:15.363Z,2.63
2019-01-02T22:26:50.742Z,2.70
2019-01-02T22:29:20.344Z,2.23
2019-01-02T22:31:48.972Z,1.60
2019-01-02T22:34:18.629Z,1.50
2019-01-02T22:36:57.141Z,1.90
2019-01-02T22:39:27.939Z,1.20
2019-01-02T22:42:02.119Z,1.80
2019-01-02T22:44:49.939Z,1.70
2019-01-02T22:47:31.632Z,1.80
2019-01-02T22:50:09.283Z,1.97
2019-01-02T22:52:59.125Z,1.97
2019-01-02T22:55:48.534Z,1.80
2019-01-02T22:58:34.735Z,1.70
2019-01-02T23:01:19.016Z,2.13
2019-01-02T23:04:06.954Z,1.93
2019-01-02T23:06:57.837Z,2.03
2019-01-02T23:09:50.777Z,1.80
2019-01-02T23:13:00.083Z,2.93
2019-01-02T23:15:54.010Z,2.77
2019-01-02T23:18:42.311Z,1.80
2019-01-02T23:21:46.305Z,1.63
2019-01-02T23:24:45.930Z,2.33
2019-01-02T23:27:38.422Z,2.40
2019-01-02T23:30:32.068Z,2.47
2019-01-02T23:33:19.609Z,2.80
2019-01-02T23:36:06.972Z,2.80
2019-01-02T23:38:52.789Z,2.90
2019-01-02T23:41:58.216Z,3.03
2019-01-02T23:44:48.663Z,3.40
2019-01-02T23:47:36.320Z,3.30
2019-01-02T23:50:26.296Z,4.60
2019-01-02T23:53:12.575Z,3.60
2019-01-02T23:56:00.852Z,3.30
2019-01-02T23:58:58.404Z,3.67
